createdAt,value
2019-05-28T00:00:29.217Z,4.50
2019-05-28T00:01:29.182Z,4.90
2019-05-28T00:02:29.146Z,5.00
2019-05-28T00:03:29.127Z,4.90
2019-05-28T00:04:29.076Z,5.10
2019-05-28T00:05:29.036Z,4.90
2019-05-28T00:06:29.000Z,4.70
2019-05-28T00:07:28.965Z,5.30
2019-05-28T00:08:28.933Z,4.80
2019-05-28T00:09:28.896Z,4.70
2019-05-28T00:10:28.864Z,4.80
2019-05-28T00:11:28.818Z,4.30
2019-05-28T00:12:28.779Z,4.60
2019-05-28T00:13:28.742Z,4.50
2019-05-28T00:14:28.709Z,4.70
2019-05-28T00:15:28.673Z,4.80
2019-05-28T00:16:28.641Z,4.30
2019-05-28T00:17:28.605Z,4.60
2019-05-28T00:18:28.564Z,4.80
2019-05-28T00:19:28.525Z,4.50
2019-05-28T00:20:28.532Z,4.80
2019-05-28T00:21:28.460Z,5.20
2019-05-28T00:22:28.418Z,4.70
2019-05-28T00:23:28.380Z,4.40
2019-05-28T00:24:28.344Z,4.60
2019-05-28T00:25:29.349Z,5.10
2019-05-28T00:26:28.271Z,5.00
2019-05-28T00:27:28.235Z,4.80
2019-05-28T00:28:28.198Z,4.80
2019-05-28T00:29:28.165Z,5.10
2019-05-28T00:30:28.136Z,4.60
2019-05-28T00:31:28.106Z,4.70
2019-05-28T00:32:28.048Z,4.90
2019-05-28T00:33:28.014Z,4.60
2019-05-28T00:34:27.979Z,5.20
2019-05-28T00:35:27.942Z,5.00
2019-05-28T00:36:27.909Z,5.10
2019-05-28T00:37:27.875Z,5.10
2019-05-28T00:38:27.831Z,5.10
2019-05-28T00:39:27.798Z,4.90
2019-05-28T00:40:27.762Z,4.70
2019-05-28T00:41:27.725Z,4.60
2019-05-28T00:42:27.685Z,5.20
2019-05-28T00:43:27.647Z,4.70
2019-05-28T00:44:27.670Z,5.00
2019-05-28T00:45:27.572Z,4.50
2019-05-28T00:46:27.540Z,4.70
2019-05-28T00:47:27.504Z,4.80
2019-05-28T00:48:27.470Z,5.00
2019-05-28T00:49:27.442Z,4.70
2019-05-28T00:50:27.395Z,4.80
2019-05-28T00:51:27.354Z,4.50
2019-05-28T00:52:27.321Z,4.40
2019-05-28T00:53:27.293Z,4.60
2019-05-28T00:54:27.247Z,5.10
2019-05-28T00:55:27.212Z,4.50
2019-05-28T00:56:27.173Z,4.20
2019-05-28T00:57:27.140Z,4.50
2019-05-28T00:58:27.102Z,4.70
2019-05-28T00:59:27.064Z,4.70
2019-05-28T01:00:36.507Z,4.60
2019-05-28T01:01:26.994Z,4.70
2019-05-28T01:02:26.956Z,4.40
2019-05-28T01:03:26.916Z,4.70
2019-05-28T01:04:26.877Z,4.70
2019-05-28T01:05:26.839Z,4.40
2019-05-28T01:06:26.807Z,4.40
2019-05-28T01:07:26.770Z,4.40
2019-05-28T01:08:26.737Z,4.30
2019-05-28T01:09:26.694Z,4.30
2019-05-28T01:10:26.659Z,4.30
2019-05-28T01:11:26.624Z,4.50
2019-05-28T01:12:26.589Z,4.30
2019-05-28T01:13:26.554Z,4.30
2019-05-28T01:14:26.519Z,4.10
2019-05-28T01:15:26.476Z,4.20
2019-05-28T01:16:26.441Z,4.40
2019-05-28T01:17:26.400Z,3.90
2019-05-28T01:18:26.366Z,4.20
2019-05-28T01:19:26.336Z,4.00
2019-05-28T01:20:26.295Z,3.90
2019-05-28T01:21:26.258Z,4.40
2019-05-28T01:22:26.221Z,4.30
2019-05-28T01:23:26.180Z,4.00
2019-05-28T01:24:26.142Z,4.50
2019-05-28T01:25:26.111Z,4.20
2019-05-28T01:26:26.075Z,3.90
2019-05-28T01:27:26.035Z,4.30
2019-05-28T01:28:25.995Z,4.00
2019-05-28T01:29:25.961Z,4.20
2019-05-28T01:30:25.925Z,4.40
2019-05-28T01:31:25.893Z,3.90
2019-05-28T01:32:25.855Z,4.30
2019-05-28T01:33:25.819Z,4.00
2019-05-28T01:34:25.781Z,4.10
2019-05-28T01:35:25.739Z,4.00
2019-05-28T01:36:25.703Z,3.90
2019-05-28T01:37:25.664Z,3.90
2019-05-28T01:38:25.630Z,4.10
2019-05-28T01:39:25.595Z,4.10
2019-05-28T01:40:25.558Z,3.90
2019-05-28T01:41:25.517Z,3.90
2019-05-28T01:42:25.483Z,4.00
2019-05-28T01:43:25.445Z,4.10
2019-05-28T01:44:25.412Z,4.20
2019-05-28T01:45:25.375Z,4.20
2019-05-28T01:46:25.337Z,4.00
2019-05-28T01:47:25.296Z,4.10
2019-05-28T01:48:25.258Z,4.20
2019-05-28T01:49:25.224Z,4.00
2019-05-28T01:50:25.201Z,3.70
2019-05-28T01:51:25.154Z,3.90
2019-05-28T01:52:25.119Z,3.90
2019-05-28T01:53:25.082Z,4.30
2019-05-28T01:54:25.043Z,4.50
2019-05-28T01:55:25.002Z,3.70
2019-05-28T01:56:24.963Z,4.10
2019-05-28T01:57:24.933Z,3.80
2019-05-28T01:58:24.894Z,3.80
2019-05-28T01:59:24.855Z,4.10
2019-05-28T02:00:24.815Z,4.00
2019-05-28T02:01:24.781Z,3.80
2019-05-28T02:02:24.743Z,3.60
2019-05-28T02:03:24.707Z,3.60
2019-05-28T02:04:24.676Z,3.80
2019-05-28T02:05:24.636Z,4.00
2019-05-28T02:06:24.597Z,4.10
2019-05-28T02:07:24.558Z,3.60
2019-05-28T02:08:24.520Z,3.40
2019-05-28T02:09:24.485Z,3.50
2019-05-28T02:10:24.448Z,4.00
2019-05-28T02:11:24.421Z,3.50
2019-05-28T02:12:24.377Z,3.90
2019-05-28T02:13:24.338Z,3.40
2019-05-28T02:14:24.299Z,3.50
2019-05-28T02:15:24.265Z,4.00
2019-05-28T02:16:24.233Z,3.80
2019-05-28T02:17:24.200Z,3.40
2019-05-28T02:18:24.154Z,3.40
2019-05-28T02:19:24.113Z,3.80
2019-05-28T02:20:24.077Z,3.70
2019-05-28T02:21:24.096Z,3.80
2019-05-28T02:22:24.006Z,3.80
2019-05-28T02:23:23.970Z,3.70
2019-05-28T02:24:23.930Z,3.50
2019-05-28T02:25:23.897Z,3.80
2019-05-28T02:26:23.861Z,3.70
2019-05-28T02:27:23.817Z,3.80
2019-05-28T02:28:23.782Z,3.70
2019-05-28T02:29:23.758Z,3.60
2019-05-28T02:30:23.723Z,3.80
2019-05-28T02:31:27.746Z,4.10
2019-05-28T02:32:23.641Z,4.10
2019-05-28T02:33:23.595Z,3.80
2019-05-28T02:34:23.573Z,3.50
2019-05-28T02:35:23.533Z,4.00
2019-05-28T02:36:23.487Z,3.70
2019-05-28T02:37:23.449Z,3.80
2019-05-28T02:38:23.425Z,3.80
2019-05-28T02:39:23.380Z,3.70
2019-05-28T02:40:33.022Z,4.20
2019-05-28T02:42:27.747Z,3.90
2019-05-28T02:43:27.690Z,4.00
2019-05-28T02:44:27.647Z,3.80
2019-05-28T02:45:27.607Z,4.00
2019-05-28T02:46:27.566Z,3.80
2019-05-28T02:47:27.533Z,3.80
2019-05-28T02:48:27.498Z,4.20
2019-05-28T02:49:27.462Z,4.00
2019-05-28T02:50:27.425Z,3.70
2019-05-28T02:51:27.387Z,3.40
2019-05-28T02:52:27.346Z,3.80
2019-05-28T02:53:27.375Z,4.00
2019-05-28T02:54:27.276Z,3.80
2019-05-28T02:55:27.237Z,4.10
2019-05-28T02:56:27.199Z,3.40
2019-05-28T02:57:27.159Z,3.80
2019-05-28T02:58:27.125Z,3.70
2019-05-28T02:59:27.088Z,4.00
2019-05-28T03:00:27.051Z,3.80
2019-05-28T03:01:42.773Z,3.90
2019-05-28T03:02:26.981Z,3.90
2019-05-28T03:03:26.941Z,3.70
2019-05-28T03:04:26.902Z,3.70
2019-05-28T03:05:26.862Z,3.50
2019-05-28T03:06:26.827Z,3.90
2019-05-28T03:07:26.792Z,3.90
2019-05-28T03:08:26.754Z,3.60
2019-05-28T03:09:26.720Z,3.70
2019-05-28T03:10:26.677Z,3.70
2019-05-28T03:11:26.644Z,3.70
2019-05-28T03:12:26.611Z,4.00
2019-05-28T03:13:26.572Z,3.80
2019-05-28T03:14:26.541Z,3.80
2019-05-28T03:15:26.498Z,4.10
2019-05-28T03:16:26.457Z,3.70
2019-05-28T03:17:26.420Z,4.10
2019-05-28T03:18:26.382Z,3.90
2019-05-28T03:19:26.348Z,3.90
2019-05-28T03:20:26.315Z,4.20
2019-05-28T03:21:26.276Z,4.20
2019-05-28T03:22:26.241Z,3.90
2019-05-28T03:35:59.872Z,3.20
2019-05-28T03:36:59.662Z,4.30
2019-05-28T03:37:59.626Z,4.20
2019-05-28T03:38:59.618Z,4.10
2019-05-28T03:39:59.538Z,4.40
2019-05-28T03:40:59.507Z,4.60
2019-05-28T03:41:59.463Z,4.70
2019-05-28T03:42:59.422Z,4.60
2019-05-28T03:43:59.400Z,4.70
2019-05-28T03:44:59.342Z,4.00
2019-05-28T03:45:59.303Z,4.60
2019-05-28T03:46:59.267Z,4.80
2019-05-28T03:47:59.225Z,5.00
2019-05-28T03:48:59.190Z,4.00
2019-05-28T03:49:59.152Z,4.10
2019-05-28T03:50:59.113Z,4.90
2019-05-28T03:51:59.070Z,4.40
2019-05-28T03:52:59.037Z,5.20
2019-05-28T03:53:58.999Z,4.20
2019-05-28T03:54:58.960Z,4.40
2019-05-28T03:55:58.923Z,4.50
2019-05-28T03:56:58.880Z,4.00
2019-05-28T03:57:58.843Z,4.70
2019-05-28T03:58:58.806Z,4.40
2019-05-28T03:59:58.769Z,4.60
2019-05-28T04:00:58.741Z,4.50
2019-05-28T04:01:58.694Z,4.40
2019-05-28T04:02:58.661Z,4.60
2019-05-28T04:03:58.622Z,4.50
2019-05-28T04:04:58.581Z,4.40
2019-05-28T04:05:58.546Z,4.40
2019-05-28T04:06:58.508Z,4.20
2019-05-28T04:07:58.498Z,4.50
2019-05-28T04:08:58.431Z,4.50
2019-05-28T04:09:58.397Z,4.20
2019-05-28T04:10:58.357Z,4.50
2019-05-28T04:11:58.317Z,4.50
2019-05-28T04:12:58.285Z,4.30
2019-05-28T04:13:58.243Z,4.40
2019-05-28T04:14:58.207Z,4.20
2019-05-28T04:15:58.173Z,4.10
2019-05-28T04:16:58.133Z,3.80
2019-05-28T04:17:58.093Z,3.80
2019-05-28T04:18:58.058Z,4.10
2019-05-28T04:19:58.019Z,3.90
2019-05-28T04:20:57.984Z,3.90
2019-05-28T04:21:57.947Z,4.10
2019-05-28T04:22:57.907Z,4.30
2019-05-28T04:23:57.867Z,4.00
2019-05-28T04:24:57.837Z,4.10
2019-05-28T04:25:57.797Z,4.30
2019-05-28T04:26:57.759Z,4.40
2019-05-28T04:27:57.723Z,3.90
2019-05-28T04:28:57.680Z,3.90
2019-05-28T04:29:57.646Z,4.20
2019-05-28T04:30:57.608Z,4.40
2019-05-28T04:31:57.570Z,4.10
2019-05-28T04:32:57.535Z,3.80
2019-05-28T04:33:58.354Z,4.30
2019-05-28T04:34:57.462Z,4.10
2019-05-28T04:35:57.425Z,3.60
2019-05-28T04:36:57.383Z,3.90
2019-05-28T04:37:57.344Z,3.80
2019-05-28T04:38:57.313Z,3.90
2019-05-28T04:39:57.275Z,3.90
2019-05-28T04:40:57.235Z,3.60
2019-05-28T04:41:57.197Z,3.60
2019-05-28T04:42:57.160Z,3.70
2019-05-28T04:43:57.122Z,3.80
2019-05-28T04:44:57.086Z,3.70
2019-05-28T04:45:57.049Z,4.20
2019-05-28T04:46:57.015Z,3.80
2019-05-28T04:47:56.975Z,4.40
2019-05-28T04:48:56.936Z,4.10
2019-05-28T04:49:56.907Z,4.20
2019-05-28T04:50:56.862Z,4.20
2019-05-28T04:51:56.823Z,3.50
2019-05-28T04:52:56.791Z,4.00
2019-05-28T04:53:56.752Z,3.30
2019-05-28T04:54:56.713Z,4.30
2019-05-28T04:55:56.674Z,4.00
2019-05-28T04:56:56.637Z,4.00
2019-05-28T04:57:56.604Z,3.90
2019-05-28T04:58:56.567Z,4.00
2019-05-28T04:59:56.527Z,4.30
2019-05-28T05:00:56.490Z,4.20
2019-05-28T05:01:56.450Z,3.70
2019-05-28T05:03:00.262Z,3.80
2019-05-28T05:03:56.376Z,3.60
2019-05-28T05:04:56.347Z,3.50
2019-05-28T05:05:56.306Z,3.90
2019-05-28T05:06:56.284Z,3.70
2019-05-28T05:07:56.233Z,3.80
2019-05-28T05:08:56.193Z,3.70
2019-05-28T05:09:56.152Z,3.80
2019-05-28T05:10:56.120Z,4.20
2019-05-28T05:11:56.091Z,3.90
2019-05-28T05:12:56.057Z,3.80
2019-05-28T05:13:56.008Z,4.10
2019-05-28T05:14:55.976Z,3.90
2019-05-28T05:15:55.931Z,3.90
2019-05-28T05:16:55.901Z,3.70
2019-05-28T05:17:55.860Z,4.00
2019-05-28T05:18:55.844Z,4.30
2019-05-28T05:19:55.787Z,4.10
2019-05-28T05:20:55.748Z,4.30
2019-05-28T05:21:55.715Z,3.70
2019-05-28T05:22:55.730Z,4.20
2019-05-28T05:23:55.635Z,3.90
2019-05-28T05:24:55.598Z,4.00
2019-05-28T05:25:55.563Z,4.20
2019-05-28T05:26:55.524Z,3.80
2019-05-28T05:27:55.492Z,4.00
2019-05-28T05:28:55.453Z,4.30
2019-05-28T05:29:55.419Z,3.60
2019-05-28T05:30:55.380Z,4.00
2019-05-28T05:31:55.340Z,3.70
2019-05-28T05:32:55.304Z,4.00
2019-05-28T05:33:55.266Z,4.30
2019-05-28T05:34:55.222Z,4.30
2019-05-28T05:35:55.194Z,3.90
2019-05-28T05:36:55.179Z,4.40
2019-05-28T05:37:55.117Z,3.90
2019-05-28T05:38:55.081Z,4.30
2019-05-28T05:39:55.045Z,3.90
2019-05-28T05:40:55.009Z,3.80
2019-05-28T05:41:54.996Z,4.00
2019-05-28T05:42:54.933Z,4.10
2019-05-28T05:43:54.897Z,4.20
2019-05-28T05:44:54.855Z,4.30
2019-05-28T05:45:54.816Z,4.50
2019-05-28T05:46:54.790Z,4.30
2019-05-28T05:47:54.747Z,4.00
2019-05-28T05:48:54.714Z,4.50
2019-05-28T05:49:54.674Z,4.40
2019-05-28T05:50:54.686Z,4.40
2019-05-28T05:51:54.600Z,4.50
2019-05-28T05:52:54.563Z,5.00
2019-05-28T05:53:54.520Z,5.50
2019-05-28T05:54:54.496Z,5.30
2019-05-28T05:55:54.455Z,5.20
2019-05-28T05:56:54.420Z,4.70
2019-05-28T05:57:54.376Z,4.70
2019-05-28T05:58:54.350Z,5.10
2019-05-28T05:59:54.303Z,5.00
2019-05-28T06:00:54.266Z,4.70
2019-05-28T06:01:54.229Z,5.30
2019-05-28T06:02:54.197Z,4.80
2019-05-28T06:03:54.159Z,5.10
2019-05-28T06:04:54.138Z,4.80
2019-05-28T06:05:54.082Z,4.70
2019-05-28T06:06:54.045Z,5.00
2019-05-28T06:07:54.014Z,5.30
2019-05-28T06:08:53.971Z,4.80
2019-05-28T06:09:53.944Z,4.80
2019-05-28T06:10:53.898Z,4.50
2019-05-28T06:11:53.860Z,5.20
2019-05-28T06:12:53.822Z,4.80
2019-05-28T06:13:53.782Z,4.90
2019-05-28T06:14:53.777Z,4.60
2019-05-28T06:15:53.716Z,5.00
2019-05-28T06:16:53.674Z,4.90
2019-05-28T06:17:53.634Z,4.70
2019-05-28T06:18:53.616Z,5.00
2019-05-28T06:19:53.564Z,4.70
2019-05-28T06:21:08.044Z,4.10
2019-05-28T06:21:53.492Z,4.10
2019-05-28T06:22:53.456Z,4.10
2019-05-28T06:23:53.419Z,4.20
2019-05-28T06:24:53.383Z,4.70
2019-05-28T06:25:53.346Z,4.50
2019-05-28T06:26:53.310Z,4.50
2019-05-28T06:27:53.273Z,4.40
2019-05-28T06:28:53.235Z,4.30
2019-05-28T06:29:53.218Z,4.00
2019-05-28T06:30:53.164Z,4.60
2019-05-28T06:31:53.128Z,4.20
2019-05-28T06:32:53.093Z,4.40
2019-05-28T06:33:56.582Z,4.50
2019-05-28T06:34:53.021Z,4.60
2019-05-28T06:35:52.989Z,4.00
2019-05-28T06:36:52.944Z,4.00
2019-05-28T06:37:52.907Z,4.20
2019-05-28T06:38:52.869Z,3.70
2019-05-28T06:39:52.838Z,4.30
2019-05-28T06:40:52.801Z,4.00
2019-05-28T06:41:52.769Z,4.00
2019-05-28T06:42:52.734Z,4.20
2019-05-28T06:43:52.694Z,4.20
2019-05-28T06:44:52.666Z,4.00
2019-05-28T06:45:52.624Z,4.10
2019-05-28T06:46:52.588Z,4.10
2019-05-28T06:47:52.561Z,4.10
2019-05-28T06:48:52.513Z,4.00
2019-05-28T06:49:52.474Z,3.60
2019-05-28T06:50:52.440Z,3.90
2019-05-28T06:51:52.410Z,3.90
2019-05-28T06:52:52.369Z,4.30
2019-05-28T06:53:52.350Z,4.20
2019-05-28T06:54:52.328Z,4.00
2019-05-28T06:55:52.261Z,3.60
2019-05-28T06:56:52.229Z,3.80
2019-05-28T06:57:52.194Z,3.50
2019-05-28T06:58:52.160Z,3.90
2019-05-28T06:59:52.117Z,3.90
2019-05-28T07:00:52.089Z,3.50
2019-05-28T07:01:52.052Z,3.90
2019-05-28T07:02:52.009Z,3.70
2019-05-28T07:03:51.975Z,3.60
2019-05-28T07:04:51.943Z,3.30
2019-05-28T07:06:05.587Z,3.60
2019-05-28T07:06:51.871Z,3.90
2019-05-28T07:07:51.836Z,4.00
2019-05-28T07:08:51.796Z,3.30
2019-05-28T07:09:51.760Z,3.40
2019-05-28T07:10:57.851Z,3.70
2019-05-28T07:11:51.689Z,3.90
2019-05-28T07:12:51.660Z,3.80
2019-05-28T07:13:51.633Z,3.30
2019-05-28T07:14:51.595Z,3.80
2019-05-28T07:15:51.552Z,3.90
2019-05-28T07:16:53.650Z,3.50
2019-05-28T07:17:51.631Z,3.40
2019-05-28T07:18:51.452Z,3.30
2019-05-28T07:19:51.433Z,3.10
2019-05-28T07:20:51.368Z,3.40
2019-05-28T07:21:51.347Z,3.20
2019-05-28T07:22:51.325Z,3.80
2019-05-28T07:23:51.263Z,3.10
2019-05-28T07:24:51.235Z,3.40
2019-05-28T07:25:51.193Z,3.40
2019-05-28T07:26:51.158Z,3.30
2019-05-28T07:28:07.230Z,3.30
2019-05-28T07:28:51.088Z,3.60
2019-05-28T07:29:51.045Z,3.10
2019-05-28T07:30:51.025Z,3.30
2019-05-28T07:31:50.978Z,3.40
2019-05-28T07:32:50.941Z,3.20
2019-05-28T07:33:50.917Z,3.30
2019-05-28T07:34:50.865Z,2.80
2019-05-28T07:35:50.834Z,3.10
2019-05-28T07:36:50.798Z,3.00
2019-05-28T07:37:50.776Z,2.90
2019-05-28T07:38:50.735Z,2.60
2019-05-28T07:39:50.699Z,3.00
2019-05-28T07:40:50.662Z,3.20
2019-05-28T07:41:50.622Z,2.90
2019-05-28T07:42:50.581Z,3.00
2019-05-28T07:43:50.549Z,3.20
2019-05-28T07:44:50.515Z,3.00
2019-05-28T07:45:50.483Z,2.70
2019-05-28T07:46:50.445Z,2.80
2019-05-28T07:47:50.484Z,3.30
2019-05-28T07:48:50.374Z,3.00
2019-05-28T07:49:50.372Z,3.30
2019-05-28T07:50:50.310Z,3.20
2019-05-28T07:51:50.276Z,3.10
2019-05-28T07:52:50.245Z,3.10
2019-05-28T07:53:50.203Z,3.20
2019-05-28T07:54:50.163Z,3.20
2019-05-28T07:55:50.151Z,3.50
2019-05-28T07:56:50.097Z,3.40
2019-05-28T07:57:50.066Z,3.30
2019-05-28T07:58:50.028Z,3.30
2019-05-28T07:59:49.991Z,3.30
2019-05-28T08:00:49.953Z,3.30
2019-05-28T08:01:49.926Z,2.90
2019-05-28T08:02:49.882Z,3.60
2019-05-28T08:03:49.860Z,3.40
2019-05-28T08:04:49.818Z,3.60
2019-05-28T08:05:49.783Z,3.50
2019-05-28T08:06:54.866Z,3.20
2019-05-28T08:07:49.710Z,3.50
2019-05-28T08:08:49.680Z,3.30
2019-05-28T08:09:49.647Z,3.40
2019-05-28T08:10:49.609Z,3.40
2019-05-28T08:11:49.573Z,3.50
2019-05-28T08:12:49.536Z,3.00
2019-05-28T08:13:52.357Z,3.70
2019-05-28T08:14:49.463Z,3.40
2019-05-28T08:15:49.438Z,3.20
2019-05-28T08:16:52.737Z,3.20
2019-05-28T08:17:49.364Z,3.10
2019-05-28T08:18:49.367Z,3.20
2019-05-28T08:19:49.294Z,3.10
2019-05-28T08:20:49.283Z,2.90
2019-05-28T08:21:49.223Z,3.20
2019-05-28T08:22:49.189Z,2.90
2019-05-28T08:23:49.155Z,3.40
2019-05-28T08:24:49.134Z,3.10
2019-05-28T08:25:49.100Z,3.00
2019-05-28T08:26:49.048Z,2.90
2019-05-28T08:27:49.017Z,3.10
2019-05-28T08:28:48.983Z,3.10
2019-05-28T08:29:48.948Z,3.00
2019-05-28T08:30:48.915Z,3.10
2019-05-28T08:31:48.878Z,3.10
2019-05-28T08:32:48.863Z,3.10
2019-05-28T08:33:48.805Z,2.90
2019-05-28T08:35:04.273Z,2.80
2019-05-28T08:35:51.437Z,3.00
2019-05-28T08:37:04.054Z,3.10
2019-05-28T08:37:48.673Z,3.20
2019-05-28T08:38:48.634Z,3.10
2019-05-28T08:39:48.600Z,3.20
2019-05-28T08:40:48.567Z,3.00
2019-05-28T08:41:57.230Z,3.20
2019-05-28T08:43:52.975Z,2.60
2019-05-28T08:44:52.906Z,2.70
2019-05-28T08:45:52.879Z,2.60
2019-05-28T08:46:52.835Z,2.70
2019-05-28T08:47:52.808Z,2.80
2019-05-28T08:48:52.780Z,2.60
2019-05-28T08:49:52.750Z,2.80
2019-05-28T08:50:52.705Z,2.50
2019-05-28T08:51:52.673Z,2.50
2019-05-28T08:52:52.632Z,2.20
2019-05-28T08:53:52.599Z,2.90
2019-05-28T08:54:52.579Z,2.40
2019-05-28T08:55:52.533Z,2.60
2019-05-28T08:56:52.500Z,2.70
2019-05-28T08:57:52.461Z,2.60
2019-05-28T08:58:52.428Z,2.60
2019-05-28T08:59:52.409Z,2.40
2019-05-28T09:00:52.362Z,2.50
2019-05-28T09:01:52.329Z,2.40
2019-05-28T09:02:52.300Z,2.30
2019-05-28T09:03:52.259Z,2.50
2019-05-28T09:04:52.284Z,2.30
2019-05-28T09:05:52.195Z,2.20
2019-05-28T09:06:52.163Z,2.50
2019-05-28T09:07:52.128Z,2.10
2019-05-28T09:08:52.098Z,2.50
2019-05-28T09:09:52.066Z,2.40
2019-05-28T09:10:52.027Z,2.40
2019-05-28T09:11:51.986Z,2.60
2019-05-28T09:14:53.904Z,2.20
2019-05-28T09:15:23.996Z,2.30
2019-05-28T09:16:23.948Z,2.40
2019-05-28T09:17:23.920Z,2.30
2019-05-28T09:18:23.940Z,2.20
2019-05-28T09:19:23.852Z,2.20
2019-05-28T09:20:23.825Z,2.40
2019-05-28T09:21:23.780Z,2.70
2019-05-28T09:22:26.051Z,2.20
2019-05-28T09:23:23.711Z,2.30
2019-05-28T09:24:27.466Z,2.60
2019-05-28T09:25:23.642Z,2.20
2019-05-28T09:26:23.612Z,2.20
2019-05-28T09:27:23.573Z,2.30
2019-05-28T09:28:30.267Z,1.90
2019-05-28T09:29:23.510Z,2.40
2019-05-28T09:30:23.477Z,2.50
2019-05-28T09:31:23.444Z,2.40
2019-05-28T09:32:23.408Z,2.20
2019-05-28T09:33:23.371Z,2.30
2019-05-28T09:34:23.342Z,2.40
2019-05-28T09:35:23.305Z,2.30
2019-05-28T09:36:23.279Z,2.20
2019-05-28T09:49:24.808Z,1.50
2019-05-28T09:50:30.739Z,2.10
2019-05-28T09:51:24.694Z,2.00
2019-05-28T09:52:24.664Z,1.80
2019-05-28T09:53:24.617Z,2.20
2019-05-28T09:54:24.585Z,2.20
2019-05-28T09:55:24.559Z,2.00
2019-05-28T09:56:24.524Z,2.30
2019-05-28T09:57:24.469Z,2.30
2019-05-28T09:58:24.450Z,2.20
2019-05-28T09:59:24.404Z,2.00
2019-05-28T10:00:24.363Z,2.00
2019-05-28T10:01:24.333Z,2.20
2019-05-28T10:02:24.303Z,2.10
2019-05-28T10:03:24.261Z,2.00
2019-05-28T10:04:42.918Z,2.10
2019-05-28T10:05:24.192Z,2.10
2019-05-28T10:06:36.341Z,2.60
2019-05-28T10:07:24.122Z,1.90
2019-05-28T10:08:24.092Z,1.90
2019-05-28T10:09:24.057Z,2.10
2019-05-28T10:10:24.033Z,1.80
2019-05-28T10:11:23.989Z,2.00
2019-05-28T10:12:23.953Z,1.90
2019-05-28T10:13:37.979Z,1.90
2019-05-28T10:14:23.881Z,1.80
2019-05-28T10:15:23.847Z,1.80
2019-05-28T10:16:23.817Z,1.70
2019-05-28T10:17:23.783Z,1.70
2019-05-28T10:18:23.757Z,1.90
2019-05-28T10:19:23.717Z,2.20
2019-05-28T10:20:23.675Z,2.00
2019-05-28T10:21:23.649Z,2.10
2019-05-28T10:22:23.614Z,1.70
2019-05-28T10:23:23.582Z,2.00
2019-05-28T10:24:23.549Z,1.90
2019-05-28T10:25:23.513Z,1.90
2019-05-28T10:26:23.476Z,2.00
2019-05-28T10:27:23.444Z,1.80
2019-05-28T10:28:23.410Z,1.90
2019-05-28T10:29:23.377Z,1.90
2019-05-28T10:30:23.397Z,1.60
2019-05-28T10:31:23.312Z,2.00
2019-05-28T10:32:23.278Z,2.00
2019-05-28T10:33:23.239Z,2.00
2019-05-28T10:34:23.208Z,2.00
2019-05-28T10:35:23.175Z,2.00
2019-05-28T10:36:35.333Z,1.90
2019-05-28T10:37:23.107Z,1.80
2019-05-28T10:38:23.069Z,2.00
2019-05-28T10:39:23.038Z,2.10
2019-05-28T10:40:23.003Z,2.00
2019-05-28T10:41:22.969Z,2.20
2019-05-28T10:42:22.933Z,1.90
2019-05-28T10:43:22.899Z,2.10
2019-05-28T10:44:22.865Z,2.10
2019-05-28T10:45:22.829Z,2.10
2019-05-28T10:46:22.795Z,2.20
2019-05-28T10:47:22.783Z,2.00
2019-05-28T10:48:22.730Z,2.20
2019-05-28T10:49:22.700Z,2.10
2019-05-28T10:50:22.658Z,1.90
2019-05-28T10:51:22.646Z,2.30
2019-05-28T10:52:22.587Z,2.20
2019-05-28T10:53:22.554Z,1.80
2019-05-28T10:54:22.523Z,2.60
2019-05-28T10:55:22.490Z,1.80
2019-05-28T10:56:22.453Z,2.30
2019-05-28T10:57:22.418Z,2.20
2019-05-28T10:58:22.382Z,1.80
2019-05-28T10:59:22.349Z,1.80
2019-05-28T11:00:22.316Z,2.10
2019-05-28T11:01:22.279Z,2.10
2019-05-28T11:02:22.244Z,1.60
2019-05-28T11:03:22.305Z,1.60
2019-05-28T11:04:22.178Z,1.90
2019-05-28T11:05:22.141Z,1.90
2019-05-28T11:06:22.118Z,1.90
2019-05-28T11:07:22.072Z,1.50
2019-05-28T11:08:22.042Z,1.80
2019-05-28T11:09:22.004Z,1.40
2019-05-28T11:10:24.426Z,1.40
2019-05-28T11:11:21.928Z,1.60
2019-05-28T11:12:21.929Z,1.60
2019-05-28T11:13:21.867Z,1.30
2019-05-28T11:14:21.831Z,1.40
2019-05-28T11:15:23.786Z,1.60
2019-05-28T11:16:21.760Z,1.20
2019-05-28T11:17:21.719Z,1.60
2019-05-28T11:18:21.681Z,1.50
2019-05-28T11:19:21.650Z,1.90
2019-05-28T11:20:21.636Z,1.60
2019-05-28T11:21:21.576Z,1.70
2019-05-28T11:22:21.538Z,1.60
2019-05-28T11:23:21.514Z,1.80
2019-05-28T11:24:21.464Z,1.50
2019-05-28T11:25:21.446Z,1.60
2019-05-28T11:26:21.401Z,1.70
2019-05-28T11:27:23.945Z,1.50
2019-05-28T11:28:21.324Z,1.40
2019-05-28T11:29:21.293Z,1.80
2019-05-28T11:30:21.309Z,1.50
2019-05-28T11:31:21.251Z,1.40
2019-05-28T11:32:21.173Z,1.40
2019-05-28T11:33:21.139Z,1.40
2019-05-28T11:34:21.113Z,1.40
2019-05-28T11:35:21.070Z,1.30
2019-05-28T11:36:21.034Z,1.30
2019-05-28T11:37:20.998Z,1.30
2019-05-28T11:38:20.971Z,1.20
2019-05-28T11:39:20.928Z,1.20
2019-05-28T11:40:20.894Z,1.40
2019-05-28T11:41:20.859Z,1.20
2019-05-28T11:42:20.816Z,1.00
2019-05-28T11:43:20.783Z,1.10
2019-05-28T11:44:20.747Z,1.10
2019-05-28T11:45:20.708Z,1.10
2019-05-28T11:46:20.681Z,1.20
2019-05-28T11:47:20.643Z,1.10
2019-05-28T11:48:20.604Z,1.00
2019-05-28T11:49:20.570Z,0.90
2019-05-28T11:50:20.532Z,1.00
2019-05-28T11:51:20.496Z,0.90
2019-05-28T11:52:20.462Z,1.00
2019-05-28T11:53:20.430Z,1.00
2019-05-28T11:54:20.388Z,0.90
2019-05-28T11:55:20.357Z,1.00
2019-05-28T11:56:20.318Z,0.90
2019-05-28T11:57:20.278Z,1.10
2019-05-28T11:58:20.251Z,0.90
2019-05-28T11:59:20.218Z,1.00
2019-05-28T12:00:20.192Z,0.90
2019-05-28T12:01:33.872Z,1.20
2019-05-28T12:02:20.102Z,1.00
2019-05-28T12:03:20.067Z,0.90
2019-05-28T12:04:20.037Z,0.90
2019-05-28T12:05:19.997Z,1.10
2019-05-28T12:06:19.966Z,1.20
2019-05-28T12:07:26.176Z,1.00
2019-05-28T12:08:19.894Z,0.90
2019-05-28T12:09:19.854Z,1.00
2019-05-28T12:10:19.829Z,1.10
2019-05-28T12:11:19.794Z,1.00
2019-05-28T12:12:19.754Z,1.00
2019-05-28T12:13:19.720Z,1.00
2019-05-28T12:14:19.676Z,1.10
2019-05-28T12:15:19.647Z,1.10
2019-05-28T12:16:19.610Z,1.10
2019-05-28T12:17:19.573Z,1.10
2019-05-28T12:18:19.543Z,1.00
2019-05-28T12:19:19.530Z,0.90
2019-05-28T12:20:19.483Z,1.00
2019-05-28T12:21:19.435Z,1.00
2019-05-28T12:22:19.396Z,1.00
2019-05-28T12:23:19.375Z,0.90
2019-05-28T12:24:19.333Z,1.00
2019-05-28T12:25:19.294Z,1.00
2019-05-28T12:26:19.256Z,0.80
2019-05-28T12:27:19.222Z,0.90
2019-05-28T12:28:36.506Z,1.00
2019-05-28T12:29:19.148Z,0.90
2019-05-28T12:30:19.120Z,1.10
2019-05-28T12:31:19.081Z,0.90
2019-05-28T12:32:19.048Z,1.00
2019-05-28T12:33:19.013Z,1.00
2019-05-28T12:34:18.975Z,1.00
2019-05-28T12:35:27.973Z,1.20
2019-05-28T12:36:18.904Z,1.10
2019-05-28T12:37:18.871Z,1.00
2019-05-28T12:38:18.840Z,1.20
2019-05-28T12:39:18.803Z,1.10
2019-05-28T12:40:18.782Z,1.20
2019-05-28T12:41:18.728Z,1.30
2019-05-28T12:42:18.699Z,1.00
2019-05-28T12:43:18.664Z,1.00
2019-05-28T12:44:18.640Z,1.10
2019-05-28T12:45:32.269Z,1.10
2019-05-28T12:46:18.554Z,1.20
2019-05-28T12:47:18.523Z,1.20
2019-05-28T12:48:18.495Z,1.20
2019-05-28T12:49:18.452Z,1.10
2019-05-28T12:50:20.617Z,1.20
2019-05-28T12:51:18.386Z,1.20
2019-05-28T12:52:18.352Z,1.30
2019-05-28T12:53:18.316Z,1.40
2019-05-28T12:54:18.327Z,1.30
2019-05-28T12:55:18.243Z,1.20
2019-05-28T12:56:18.215Z,1.30
2019-05-28T12:57:18.179Z,1.10
2019-05-28T12:58:18.592Z,1.30
2019-05-28T12:59:18.103Z,1.40
2019-05-28T13:00:18.069Z,1.40
2019-05-28T13:01:18.032Z,1.60
2019-05-28T13:02:18.000Z,1.50
2019-05-28T13:03:17.965Z,1.60
2019-05-28T13:04:17.927Z,1.70
2019-05-28T13:05:17.895Z,1.40
2019-05-28T13:06:17.860Z,1.50
2019-05-28T13:07:17.824Z,1.40
2019-05-28T13:08:17.792Z,1.50
2019-05-28T13:09:17.751Z,1.70
2019-05-28T13:10:17.732Z,1.50
2019-05-28T13:11:17.685Z,1.60
2019-05-28T13:12:17.647Z,1.40
2019-05-28T13:13:17.652Z,1.50
2019-05-28T13:14:17.600Z,1.40
2019-05-28T13:15:17.547Z,1.60
2019-05-28T13:16:17.510Z,1.50
2019-05-28T13:17:17.475Z,1.80
2019-05-28T13:18:17.450Z,1.70
2019-05-28T13:19:17.411Z,1.80
2019-05-28T13:20:18.611Z,1.70
2019-05-28T13:21:17.331Z,1.80
2019-05-28T13:22:17.305Z,1.80
2019-05-28T13:23:17.272Z,1.70
2019-05-28T13:24:17.227Z,1.60
2019-05-28T13:25:17.198Z,1.80
2019-05-28T13:26:17.154Z,1.70
2019-05-28T13:27:18.403Z,1.60
2019-05-28T13:28:17.090Z,1.60
2019-05-28T13:29:17.059Z,1.70
2019-05-28T13:30:17.241Z,1.80
2019-05-28T13:31:16.979Z,1.80
2019-05-28T13:32:16.976Z,1.60
2019-05-28T13:33:16.913Z,1.80
2019-05-28T13:34:16.878Z,1.90
2019-05-28T13:35:16.842Z,1.90
2019-05-28T13:36:16.805Z,1.90
2019-05-28T13:37:16.774Z,1.90
2019-05-28T13:38:26.251Z,1.80
2019-05-28T13:39:16.702Z,2.10
2019-05-28T13:40:16.701Z,2.10
2019-05-28T13:41:16.626Z,2.40
2019-05-28T13:42:16.601Z,3.10
2019-05-28T13:43:16.568Z,2.90
2019-05-28T13:44:16.531Z,3.30
2019-05-28T13:45:16.492Z,3.30
2019-05-28T13:46:16.460Z,3.40